createdAt,value
2024-04-25T00:00:36.162Z,0.65
2024-04-25T00:03:03.111Z,0.80
2024-04-25T00:05:30.153Z,0.70
2024-04-25T00:07:56.989Z,0.50
2024-04-25T00:10:23.818Z,0.60
2024-04-25T00:12:50.663Z,0.40
2024-04-25T00:15:17.503Z,0.63
2024-04-25T00:17:44.472Z,0.43
2024-04-25T00:20:11.584Z,0.63
2024-04-25T00:22:38.513Z,0.70
2024-04-25T00:25:05.769Z,0.40
2024-04-25T00:27:32.625Z,0.70
2024-04-25T00:29:59.663Z,0.50
2024-04-25T00:32:26.639Z,0.55
2024-04-25T00:34:53.534Z,0.63
2024-04-25T00:37:20.478Z,0.73
2024-04-25T00:39:47.313Z,0.40
2024-04-25T00:42:18.958Z,0.47
2024-04-25T00:44:45.874Z,0.70
2024-04-25T00:47:15.756Z,0.40
2024-04-25T00:49:43.890Z,0.60
2024-04-25T00:52:12.119Z,0.57
2024-04-25T00:54:39.132Z,0.85
2024-04-25T00:57:08.656Z,0.60
2024-04-25T00:59:37.291Z,0.60
2024-04-25T01:02:07.292Z,0.63
2024-04-25T01:04:35.781Z,0.60
2024-04-25T01:07:03.986Z,0.55
2024-04-25T01:09:31.400Z,0.50
2024-04-25T01:11:58.918Z,0.50
2024-04-25T01:14:26.125Z,0.60
2024-04-25T01:16:53.081Z,0.80
2024-04-25T01:19:19.883Z,0.45
2024-04-25T01:21:47.272Z,0.57
2024-04-25T01:24:19.627Z,0.60
2024-04-25T01:26:46.784Z,0.65
2024-04-25T01:29:15.702Z,0.60
2024-04-25T01:31:44.051Z,0.52
2024-04-25T01:34:13.520Z,0.60
2024-04-25T01:36:43.791Z,0.70
2024-04-25T01:39:11.478Z,0.50
2024-04-25T01:41:38.674Z,0.55
2024-04-25T01:44:06.286Z,0.68
2024-04-25T01:46:34.499Z,0.80
2024-04-25T01:49:01.932Z,0.60
2024-04-25T01:51:32.867Z,0.65
2024-04-25T01:53:59.764Z,0.55
2024-04-25T01:56:30.071Z,0.60
2024-04-25T01:58:56.926Z,0.50
2024-04-25T02:01:23.726Z,0.82
2024-04-25T02:03:50.828Z,0.80
2024-04-25T02:06:17.800Z,0.60
2024-04-25T02:08:45.539Z,0.50
2024-04-25T02:11:12.660Z,0.68
2024-04-25T02:13:40.137Z,0.60
2024-04-25T02:16:07.271Z,0.50
2024-04-25T02:18:34.326Z,0.60
2024-04-25T02:21:19.966Z,0.50
2024-04-25T02:24:05.469Z,0.60
2024-04-25T02:26:32.530Z,0.45
2024-04-25T02:28:59.481Z,0.50
2024-04-25T02:31:32.933Z,0.50
2024-04-25T02:34:00.278Z,0.77
2024-04-25T02:36:27.438Z,0.50
2024-04-25T02:38:54.349Z,0.90
2024-04-25T02:41:21.590Z,0.50
2024-04-25T02:43:48.593Z,0.45
2024-04-25T02:46:15.714Z,0.50
2024-04-25T02:48:43.153Z,0.63
2024-04-25T02:51:10.236Z,0.50
2024-04-25T02:53:40.199Z,0.50
2024-04-25T02:56:09.872Z,0.70
2024-04-25T02:58:37.044Z,0.70
2024-04-25T03:01:04.432Z,0.52
2024-04-25T03:03:31.868Z,0.68
2024-04-25T03:05:59.844Z,0.50
2024-04-25T03:08:27.117Z,0.60
2024-04-25T03:10:54.177Z,0.60
2024-04-25T03:13:21.301Z,0.50
2024-04-25T03:15:48.406Z,0.50
2024-04-25T03:18:15.558Z,0.57
2024-04-25T03:20:42.901Z,0.60
2024-04-25T03:23:09.996Z,0.70
2024-04-25T03:25:37.087Z,0.60
2024-04-25T03:28:04.511Z,0.70
2024-04-25T03:30:31.435Z,0.50
2024-04-25T03:32:58.546Z,0.57
2024-04-25T03:35:25.649Z,0.88
2024-04-25T03:37:52.830Z,0.65
2024-04-25T03:40:20.020Z,0.80
2024-04-25T03:42:47.198Z,0.60
2024-04-25T03:45:14.387Z,0.68
2024-04-25T03:47:41.615Z,0.70
2024-04-25T03:50:08.565Z,0.40
2024-04-25T03:52:35.459Z,0.52
2024-04-25T03:55:02.313Z,0.60
2024-04-25T03:57:29.126Z,0.50
2024-04-25T03:59:55.884Z,0.70
2024-04-25T04:02:22.859Z,0.70
2024-04-25T04:04:49.772Z,0.55
2024-04-25T04:07:16.673Z,0.50
2024-04-25T04:09:43.783Z,0.40
2024-04-25T04:12:10.668Z,0.60
2024-04-25T04:14:37.692Z,0.50
2024-04-25T04:17:04.887Z,0.60
2024-04-25T04:19:31.917Z,0.60
2024-04-25T04:21:58.780Z,0.60
2024-04-25T04:24:25.680Z,0.47
2024-04-25T04:26:52.568Z,0.50
2024-04-25T04:29:19.453Z,0.60
2024-04-25T04:31:46.333Z,0.50
2024-04-25T04:34:13.217Z,0.50
2024-04-25T04:36:40.057Z,0.60
2024-04-25T04:39:07.688Z,0.60
2024-04-25T04:41:34.491Z,0.68
2024-04-25T04:44:01.477Z,0.70
2024-04-25T04:46:28.295Z,0.80
2024-04-25T04:48:55.285Z,0.65
2024-04-25T04:51:22.461Z,0.65
2024-04-25T04:53:49.573Z,0.60
2024-04-25T04:56:16.630Z,0.70
2024-04-25T04:58:43.539Z,0.65
2024-04-25T05:01:11.269Z,0.70
2024-04-25T05:03:38.343Z,0.70
2024-04-25T05:06:09.048Z,0.60
2024-04-25T05:08:37.796Z,0.60
2024-04-25T05:11:05.090Z,0.70
2024-04-25T05:13:31.976Z,0.55
2024-04-25T05:15:58.912Z,0.70
2024-04-25T05:18:25.797Z,0.80
2024-04-25T05:20:52.708Z,0.90
2024-04-25T05:23:19.733Z,0.60
2024-04-25T05:25:46.654Z,0.90
2024-04-25T05:28:13.511Z,0.77
2024-04-25T05:30:40.317Z,0.82
2024-04-25T05:33:08.599Z,0.90
2024-04-25T05:35:35.653Z,0.70
2024-04-25T05:38:02.680Z,0.65
2024-04-25T05:40:30.464Z,0.80
2024-04-25T05:42:57.379Z,0.88
2024-04-25T05:45:24.248Z,0.80
2024-04-25T05:47:51.622Z,0.90
2024-04-25T05:50:18.906Z,1.00
2024-04-25T05:52:45.820Z,0.95
2024-04-25T05:55:12.674Z,1.00
2024-04-25T05:57:39.543Z,0.90
2024-04-25T06:00:07.156Z,0.80
2024-04-25T06:02:34.060Z,0.93
2024-04-25T06:05:01.049Z,0.90
2024-04-25T06:07:27.878Z,1.00
2024-04-25T06:09:54.939Z,1.05
2024-04-25T06:12:22.030Z,1.10
2024-04-25T06:14:49.098Z,1.02
2024-04-25T06:17:16.085Z,1.00
2024-04-25T06:19:47.306Z,1.23
2024-04-25T06:22:14.929Z,0.82
2024-04-25T06:24:42.150Z,0.88
2024-04-25T06:27:09.365Z,1.35
2024-04-25T06:29:36.424Z,1.00
2024-04-25T06:32:03.656Z,1.40
2024-04-25T06:34:31.865Z,1.02
2024-04-25T06:37:00.726Z,0.98
2024-04-25T06:39:27.826Z,1.23
2024-04-25T06:41:58.748Z,1.30
2024-04-25T06:44:31.555Z,0.93
2024-04-25T06:47:03.153Z,1.10
2024-04-25T06:49:30.231Z,1.00
2024-04-25T06:51:57.149Z,1.17
2024-04-25T06:54:26.364Z,1.10
2024-04-25T06:56:54.736Z,1.27
2024-04-25T06:59:21.703Z,0.82
2024-04-25T07:01:51.039Z,0.93
2024-04-25T07:04:18.651Z,1.08
2024-04-25T07:06:45.501Z,1.15
2024-04-25T07:09:12.395Z,1.25
2024-04-25T07:11:39.350Z,0.93
2024-04-25T07:14:06.305Z,1.10
2024-04-25T07:16:33.213Z,1.20
2024-04-25T07:19:00.304Z,1.15
2024-04-25T07:21:29.936Z,1.20
2024-04-25T07:23:59.189Z,1.00
2024-04-25T07:26:28.099Z,1.27
2024-04-25T07:28:56.638Z,0.90
2024-04-25T07:31:24.392Z,1.08
2024-04-25T07:33:51.381Z,1.23
2024-04-25T07:36:24.710Z,1.20
2024-04-25T07:38:51.841Z,1.20
2024-04-25T07:41:19.526Z,0.98
2024-04-25T07:43:46.368Z,1.20
2024-04-25T07:46:13.860Z,0.93
2024-04-25T07:48:41.923Z,1.08
2024-04-25T07:51:09.041Z,1.10
2024-04-25T07:53:35.972Z,1.00
2024-04-25T07:56:02.947Z,0.90
2024-04-25T07:58:29.801Z,0.98
2024-04-25T08:00:56.762Z,0.70
2024-04-25T08:03:26.018Z,1.48
2024-04-25T08:05:53.307Z,0.90
2024-04-25T08:08:24.728Z,1.55
2024-04-25T08:10:52.850Z,1.10
2024-04-25T08:13:19.749Z,1.20
2024-04-25T08:15:46.960Z,1.10
2024-04-25T08:18:14.138Z,0.93
2024-04-25T08:20:41.124Z,1.08
2024-04-25T08:23:08.154Z,1.08
2024-04-25T08:25:35.173Z,0.98
2024-04-25T08:28:02.072Z,1.20
2024-04-25T08:30:28.917Z,1.10
2024-04-25T08:32:56.079Z,1.00
2024-04-25T08:35:23.287Z,1.20
2024-04-25T08:37:50.176Z,1.15
2024-04-25T08:40:17.295Z,0.98
2024-04-25T08:42:45.750Z,1.08
2024-04-25T08:45:13.896Z,1.40
2024-04-25T08:47:42.247Z,1.00
2024-04-25T08:50:12.791Z,0.70
2024-04-25T08:52:42.627Z,1.03
2024-04-25T08:55:13.251Z,1.00
2024-04-25T08:57:40.240Z,1.00
2024-04-25T09:00:07.758Z,1.05
2024-04-25T09:02:39.222Z,1.05
2024-04-25T09:05:13.009Z,1.13
2024-04-25T09:07:45.848Z,0.95
2024-04-25T09:10:13.693Z,0.85
2024-04-25T09:12:40.960Z,1.00
2024-04-25T09:15:08.334Z,1.20
2024-04-25T09:17:39.101Z,1.10
2024-04-25T09:20:07.990Z,1.00
2024-04-25T09:22:34.910Z,1.00
2024-04-25T09:25:01.778Z,1.05
2024-04-25T09:27:28.673Z,1.00
2024-04-25T09:29:55.962Z,1.08
2024-04-25T09:32:23.158Z,1.08
2024-04-25T09:34:50.321Z,1.15
2024-04-25T09:37:17.909Z,1.00
2024-04-25T09:39:51.445Z,0.90
2024-04-25T09:42:22.818Z,1.40
2024-04-25T09:44:50.471Z,1.10
2024-04-25T09:47:26.893Z,0.98
2024-04-25T09:50:01.666Z,0.95
2024-04-25T09:52:44.504Z,1.42
2024-04-25T09:55:20.714Z,1.10
2024-04-25T09:57:51.400Z,1.10
2024-04-25T10:00:19.975Z,1.27
2024-04-25T10:02:49.381Z,0.70
2024-04-25T10:05:16.759Z,0.90
2024-04-25T10:07:45.070Z,0.90
2024-04-25T10:10:12.216Z,1.13
2024-04-25T10:12:39.051Z,0.90
2024-04-25T10:15:07.900Z,1.23
2024-04-25T10:17:36.394Z,0.90
2024-04-25T10:20:08.835Z,0.95
2024-04-25T10:25:15.928Z,1.00
2024-04-25T10:27:43.097Z,0.82
2024-04-25T10:30:11.786Z,1.08
2024-04-25T10:32:39.042Z,1.20
2024-04-25T10:35:06.227Z,0.90
2024-04-25T10:37:38.103Z,0.75
2024-04-25T10:40:07.050Z,1.25
2024-04-25T10:42:33.979Z,0.90
2024-04-25T10:45:00.903Z,1.15
2024-04-25T10:47:27.989Z,1.35
2024-04-25T10:49:55.968Z,0.93
2024-04-25T10:52:22.947Z,0.80
2024-04-25T10:54:49.945Z,0.90
2024-04-25T10:57:17.174Z,1.00
2024-04-25T10:59:46.002Z,1.13
2024-04-25T11:02:13.315Z,1.10
2024-04-25T11:04:42.264Z,1.10
2024-04-25T11:07:13.326Z,0.90
2024-04-25T11:09:40.394Z,1.00
2024-04-25T11:12:10.016Z,1.17
2024-04-25T11:14:38.725Z,1.15
2024-04-25T11:17:06.203Z,1.00
2024-04-25T11:19:40.133Z,0.98
2024-04-25T11:22:25.212Z,1.10
2024-04-25T11:24:57.235Z,1.00
2024-04-25T11:27:25.424Z,0.80
2024-04-25T11:29:52.377Z,0.90
2024-04-25T11:32:19.384Z,1.00
2024-04-25T11:34:46.319Z,0.95
2024-04-25T11:37:13.159Z,0.90
2024-04-25T11:39:52.365Z,1.00
2024-04-25T11:42:19.336Z,1.08
2024-04-25T11:44:46.452Z,0.98
2024-04-25T11:47:13.883Z,1.05
2024-04-25T11:49:40.823Z,1.02
2024-04-25T11:52:07.950Z,1.10
2024-04-25T11:54:36.002Z,0.88
2024-04-25T11:57:02.996Z,1.10
2024-04-25T11:59:32.891Z,0.82
2024-04-25T12:02:02.968Z,0.90
2024-04-25T12:04:29.916Z,0.88
2024-04-25T12:06:56.907Z,0.82
2024-04-25T12:09:23.962Z,1.02
2024-04-25T12:11:56.018Z,0.90
2024-04-25T12:14:24.992Z,0.70
2024-04-25T12:16:51.948Z,0.90
2024-04-25T12:19:18.996Z,0.90
2024-04-25T12:21:46.360Z,1.00
2024-04-25T12:24:13.313Z,1.20
2024-04-25T12:26:40.415Z,0.82
2024-04-25T12:29:07.366Z,0.85
2024-04-25T12:31:34.345Z,1.10
2024-04-25T12:34:01.770Z,0.98
2024-04-25T12:36:28.859Z,1.00
2024-04-25T12:38:55.936Z,0.90
2024-04-25T12:41:23.063Z,0.80
2024-04-25T12:43:50.972Z,0.82
2024-04-25T12:46:17.976Z,0.80
2024-04-25T12:48:46.500Z,0.80
2024-04-25T12:51:13.470Z,0.88
2024-04-25T12:53:41.767Z,0.80
2024-04-25T12:56:08.968Z,0.90
2024-04-25T12:58:41.670Z,0.93
2024-04-25T13:01:09.596Z,0.98
2024-04-25T13:03:36.765Z,0.80
2024-04-25T13:06:03.787Z,0.80
2024-04-25T13:08:30.707Z,0.85
2024-04-25T13:10:57.723Z,0.93
2024-04-25T13:13:26.600Z,1.00
2024-04-25T13:15:53.691Z,0.85
2024-04-25T13:18:21.130Z,0.85
2024-04-25T13:20:50.009Z,0.70
2024-04-25T13:23:17.917Z,1.20
2024-04-25T13:25:44.787Z,0.80
2024-04-25T13:28:11.878Z,0.85
2024-04-25T13:30:38.826Z,0.68
2024-04-25T13:33:08.023Z,0.80
2024-04-25T13:35:35.406Z,0.80
2024-04-25T13:38:02.876Z,0.73
2024-04-25T13:40:29.998Z,0.80
2024-04-25T13:42:56.901Z,0.93
2024-04-25T13:45:23.784Z,0.70
2024-04-25T13:47:51.089Z,0.80
2024-04-25T13:50:18.783Z,0.90
2024-04-25T13:52:47.322Z,1.00
2024-04-25T13:55:15.649Z,0.80
2024-04-25T13:57:42.755Z,1.00
2024-04-25T14:00:10.253Z,0.60
2024-04-25T14:02:37.167Z,0.73
2024-04-25T14:05:04.367Z,0.80
2024-04-25T14:07:31.344Z,0.90
2024-04-25T14:09:58.241Z,0.77
2024-04-25T14:12:29.154Z,0.82
2024-04-25T14:14:56.747Z,1.00
2024-04-25T14:17:23.895Z,0.90
2024-04-25T14:19:51.038Z,0.80
2024-04-25T14:22:17.892Z,0.85
2024-04-25T14:24:47.179Z,0.73
2024-04-25T14:27:32.702Z,1.00
2024-04-25T14:29:59.682Z,0.82
2024-04-25T14:32:26.746Z,1.20
2024-04-25T14:34:56.555Z,1.10
2024-04-25T14:37:24.761Z,1.10
2024-04-25T14:39:52.102Z,1.10
2024-04-25T14:42:19.655Z,1.02
2024-04-25T14:44:47.363Z,0.90
2024-04-25T14:47:14.451Z,1.13
2024-04-25T14:49:41.528Z,0.82
2024-04-25T14:52:08.410Z,1.08
2024-04-25T14:54:35.304Z,0.80
2024-04-25T14:57:02.233Z,0.75
2024-04-25T14:59:29.317Z,0.85
2024-04-25T15:01:56.271Z,1.00
2024-04-25T15:04:23.191Z,1.00
2024-04-25T15:06:50.028Z,1.40
2024-04-25T15:09:16.889Z,1.10
2024-04-25T15:11:52.292Z,1.15
2024-04-25T15:14:19.434Z,0.90
2024-04-25T15:16:46.388Z,1.10
2024-04-25T15:19:13.542Z,1.15
2024-04-25T15:21:40.428Z,1.45
2024-04-25T15:24:10.546Z,0.80
2024-04-25T15:26:38.237Z,1.23
2024-04-25T15:29:08.492Z,1.10
2024-04-25T15:31:36.668Z,1.00
2024-04-25T15:34:03.601Z,1.10
2024-04-25T15:36:30.647Z,0.98
2024-04-25T15:38:57.545Z,0.93
2024-04-25T15:41:24.580Z,0.70
2024-04-25T15:43:51.598Z,0.70
2024-04-25T15:46:18.699Z,0.80
2024-04-25T15:48:45.775Z,0.90
2024-04-25T15:51:12.705Z,1.02
2024-04-25T15:53:39.684Z,0.93
2024-04-25T15:56:07.110Z,0.80
2024-04-25T15:58:33.977Z,0.90
2024-04-25T16:01:01.066Z,0.80
2024-04-25T16:03:28.779Z,0.73
2024-04-25T16:05:56.104Z,0.90
2024-04-25T16:08:23.090Z,0.90
2024-04-25T16:10:50.086Z,0.85
2024-04-25T16:13:17.619Z,0.88
2024-04-25T16:15:46.461Z,0.82
2024-04-25T16:18:13.486Z,1.13
2024-04-25T16:20:40.471Z,1.05
2024-04-25T16:23:07.339Z,0.70
2024-04-25T16:25:34.257Z,0.70
2024-04-25T16:28:01.160Z,0.77
2024-04-25T16:30:28.077Z,0.93
2024-04-25T16:32:55.096Z,0.50
2024-04-25T16:35:22.115Z,1.13
2024-04-25T16:37:49.105Z,0.70
2024-04-25T16:40:16.157Z,0.82
2024-04-25T16:42:42.983Z,1.00
2024-04-25T16:45:10.081Z,0.90
2024-04-25T16:47:37.040Z,0.93
2024-04-25T16:50:04.439Z,1.10
2024-04-25T16:52:31.312Z,0.80
2024-04-25T16:54:58.260Z,1.00
2024-04-25T16:57:25.160Z,1.20
2024-04-25T16:59:52.152Z,0.82
2024-04-25T17:02:20.435Z,1.02
2024-04-25T17:04:48.777Z,0.80
2024-04-25T17:07:16.430Z,0.90
2024-04-25T17:09:44.332Z,1.00
2024-04-25T17:12:11.945Z,0.90
2024-04-25T17:14:38.905Z,0.77
2024-04-25T17:17:06.033Z,0.80
2024-04-25T17:19:33.056Z,0.77
2024-04-25T17:22:08.151Z,0.80
2024-04-25T17:24:35.191Z,0.70
2024-04-25T17:27:02.089Z,0.80
2024-04-25T17:29:29.071Z,0.63
2024-04-25T17:31:56.237Z,1.00
2024-04-25T17:34:23.380Z,1.00
2024-04-25T17:36:50.377Z,0.85
2024-04-25T17:39:17.315Z,0.80
2024-04-25T17:41:44.796Z,1.10
2024-04-25T17:44:11.831Z,0.90
2024-04-25T17:46:38.711Z,1.00
2024-04-25T17:49:05.807Z,1.00
2024-04-25T17:51:36.672Z,0.93
2024-04-25T17:54:03.938Z,0.80
2024-04-25T17:56:30.837Z,0.80
2024-04-25T17:58:57.964Z,0.80
2024-04-25T18:01:24.965Z,1.08
2024-04-25T18:03:51.866Z,1.00
2024-04-25T18:06:19.037Z,1.20
2024-04-25T18:08:45.894Z,1.08
2024-04-25T18:11:13.201Z,0.90
2024-04-25T18:13:40.202Z,1.10
2024-04-25T18:16:07.334Z,1.25
2024-04-25T18:18:34.405Z,1.27
2024-04-25T18:21:01.410Z,1.10
2024-04-25T18:23:28.328Z,1.05
2024-04-25T18:25:55.233Z,1.30
2024-04-25T18:28:22.450Z,1.20
2024-04-25T18:30:49.319Z,1.23
2024-04-25T18:33:16.397Z,0.88
2024-04-25T18:35:43.361Z,1.45
2024-04-25T18:38:10.341Z,0.90
2024-04-25T18:40:37.179Z,1.30
2024-04-25T18:43:04.678Z,1.27
2024-04-25T18:45:31.497Z,0.90
2024-04-25T18:47:58.613Z,1.23
2024-04-25T18:50:25.666Z,1.10
2024-04-25T18:52:52.515Z,1.05
2024-04-25T18:55:19.412Z,1.38
2024-04-25T18:57:46.295Z,1.08
2024-04-25T19:00:13.327Z,1.48
2024-04-25T19:02:40.924Z,1.08
2024-04-25T19:05:08.144Z,1.10
2024-04-25T19:07:35.585Z,1.05
2024-04-25T19:10:02.618Z,0.90
2024-04-25T19:12:30.651Z,0.88
2024-04-25T19:14:57.519Z,1.00
2024-04-25T19:17:25.969Z,1.00
2024-04-25T19:19:53.076Z,1.17
2024-04-25T19:22:23.248Z,0.70
2024-04-25T19:24:50.178Z,1.20
2024-04-25T19:27:17.055Z,0.98
2024-04-25T19:29:43.974Z,1.27
2024-04-25T19:32:10.986Z,1.05
2024-04-25T19:34:37.894Z,1.00
2024-04-25T19:37:05.014Z,1.17
2024-04-25T19:39:31.900Z,1.00
2024-04-25T19:41:58.837Z,0.95
2024-04-25T19:44:25.836Z,1.00
2024-04-25T19:46:53.734Z,0.88
2024-04-25T19:49:20.934Z,1.10
2024-04-25T19:51:48.535Z,0.73
2024-04-25T19:54:22.144Z,1.17
2024-04-25T19:56:49.810Z,0.88
2024-04-25T19:59:18.170Z,1.17
2024-04-25T20:01:51.276Z,1.13
2024-04-25T20:04:19.775Z,1.13
2024-04-25T20:06:46.981Z,1.23
2024-04-25T20:09:14.014Z,0.70
2024-04-25T20:11:41.046Z,1.02
2024-04-25T20:14:08.084Z,1.30
2024-04-25T20:16:36.413Z,1.10
2024-04-25T20:19:21.857Z,0.80
2024-04-25T20:21:48.754Z,1.05
2024-04-25T20:24:15.687Z,1.15
2024-04-25T20:26:42.974Z,1.15
2024-04-25T20:29:09.844Z,1.05
2024-04-25T20:31:36.920Z,1.40
2024-04-25T20:34:06.017Z,1.20
2024-04-25T20:36:33.680Z,1.17
2024-04-25T20:39:00.846Z,1.13
2024-04-25T20:41:27.866Z,1.30
2024-04-25T20:43:54.987Z,1.10
2024-04-25T20:46:25.132Z,1.50
2024-04-25T20:48:53.001Z,1.10
2024-04-25T20:51:20.457Z,1.15
2024-04-25T20:53:47.567Z,1.00
2024-04-25T20:56:14.713Z,1.20
2024-04-25T20:58:43.720Z,1.00
2024-04-25T21:01:10.727Z,1.10
2024-04-25T21:03:38.020Z,1.20
2024-04-25T21:06:05.240Z,1.00
2024-04-25T21:08:32.985Z,1.17
2024-04-25T21:11:00.090Z,1.20
2024-04-25T21:13:33.065Z,1.33
2024-04-25T21:15:59.990Z,1.20
2024-04-25T21:18:27.045Z,1.33
2024-04-25T21:20:54.844Z,0.98
2024-04-25T21:23:21.919Z,1.50
2024-04-25T21:25:54.564Z,1.10
2024-04-25T21:28:26.436Z,1.10
2024-04-25T21:30:53.589Z,1.42
2024-04-25T21:33:21.634Z,1.42
2024-04-25T21:35:48.770Z,1.20
2024-04-25T21:38:15.882Z,1.25
2024-04-25T21:40:42.831Z,1.15
2024-04-25T21:43:09.712Z,1.30
2024-04-25T21:45:36.722Z,1.20
2024-04-25T21:48:03.993Z,1.08
2024-04-25T21:50:31.017Z,1.20
2024-04-25T21:52:58.035Z,1.30
2024-04-25T21:55:24.885Z,1.30
2024-04-25T21:57:51.754Z,1.42
2024-04-25T22:00:18.650Z,1.00
2024-04-25T22:02:45.529Z,1.63
2024-04-25T22:05:12.387Z,1.30
2024-04-25T22:07:39.265Z,1.35
2024-04-25T22:10:06.595Z,1.20
2024-04-25T22:12:33.697Z,1.23
2024-04-25T22:15:00.719Z,1.35
2024-04-25T22:17:27.736Z,1.20
2024-04-25T22:19:54.571Z,1.65
2024-04-25T22:22:21.571Z,1.40
2024-04-25T22:24:48.395Z,1.85
2024-04-25T22:27:15.693Z,1.30
2024-04-25T22:29:42.817Z,1.17
2024-04-25T22:32:10.122Z,1.10
2024-04-25T22:34:37.404Z,1.40
2024-04-25T22:37:04.489Z,1.20
2024-04-25T22:39:31.364Z,1.40
2024-04-25T22:41:58.287Z,1.20
2024-04-25T22:44:25.439Z,1.30
2024-04-25T22:46:52.371Z,1.25
2024-04-25T22:49:19.406Z,1.42
2024-04-25T22:51:46.571Z,1.50
2024-04-25T22:54:13.622Z,1.30
2024-04-25T22:56:40.602Z,1.27
2024-04-25T22:59:07.438Z,1.40
2024-04-25T23:01:34.377Z,1.60
2024-04-25T23:04:01.532Z,1.15
2024-04-25T23:06:28.440Z,1.35
2024-04-25T23:08:55.369Z,1.35
2024-04-25T23:11:22.536Z,1.15
2024-04-25T23:13:49.454Z,1.40
2024-04-25T23:16:16.501Z,1.30
2024-04-25T23:18:43.811Z,1.30
2024-04-25T23:21:11.814Z,1.27
2024-04-25T23:23:39.751Z,1.40
2024-04-25T23:26:07.440Z,1.20
2024-04-25T23:28:34.306Z,1.20
2024-04-25T23:31:01.234Z,1.23
2024-04-25T23:33:28.535Z,1.40
2024-04-25T23:35:55.868Z,1.10
2024-04-25T23:38:22.988Z,1.40
2024-04-25T23:40:50.003Z,1.55
2024-04-25T23:43:16.878Z,1.33
2024-04-25T23:45:44.005Z,1.10
2024-04-25T23:48:11.133Z,1.25
2024-04-25T23:50:38.191Z,1.50
2024-04-25T23:53:05.466Z,1.25
2024-04-25T23:55:32.345Z,1.40
2024-04-25T23:57:59.238Z,1.10
